createdAt,value
2022-12-26T00:03:23.145Z,8.90
2022-12-26T00:08:26.702Z,8.63
2022-12-26T00:13:38.751Z,8.25
2022-12-26T00:18:44.151Z,6.32
2022-12-26T00:23:48.104Z,8.88
2022-12-26T00:28:50.862Z,8.32
2022-12-26T00:33:53.441Z,9.27
2022-12-26T00:38:58.745Z,9.70
2022-12-26T00:44:00.965Z,10.10
2022-12-26T00:49:03.200Z,9.93
2022-12-26T00:54:06.711Z,9.30
2022-12-26T00:59:08.840Z,9.32
2022-12-26T01:04:11.168Z,8.70
2022-12-26T01:09:14.841Z,8.23
2022-12-26T01:14:18.230Z,9.35
2022-12-26T01:19:20.346Z,9.05
2022-12-26T01:24:23.849Z,8.98
2022-12-26T01:29:25.945Z,9.27
2022-12-26T01:34:28.059Z,9.60
2022-12-26T01:39:31.563Z,8.55
2022-12-26T01:45:02.298Z,8.80
2022-12-26T01:50:06.951Z,9.02
2022-12-26T01:55:13.324Z,8.48
2022-12-26T02:00:16.300Z,9.10
2022-12-26T02:05:18.771Z,9.68
2022-12-26T02:10:27.609Z,9.95
2022-12-26T02:15:30.436Z,9.32
2022-12-26T02:20:42.126Z,8.70
2022-12-26T02:26:27.092Z,8.93
2022-12-26T02:31:35.897Z,8.82
2022-12-26T02:36:55.583Z,7.75
2022-12-26T02:42:08.522Z,7.72
2022-12-26T02:47:22.574Z,8.25
2022-12-26T02:52:31.960Z,8.30
2022-12-26T02:57:40.669Z,7.70
2022-12-26T03:02:47.753Z,8.50
2022-12-26T03:12:56.815Z,7.35
2022-12-26T03:18:05.648Z,7.07
2022-12-26T03:23:10.694Z,6.68
2022-12-26T03:28:13.828Z,7.28
2022-12-26T03:33:19.507Z,6.72
2022-12-26T03:38:27.426Z,5.95
2022-12-26T03:43:45.232Z,6.05
2022-12-26T03:48:56.923Z,5.75
2022-12-26T03:54:08.221Z,6.00
2022-12-26T03:59:15.208Z,6.00
2022-12-26T04:04:20.998Z,6.13
2022-12-26T04:09:29.201Z,6.30
2022-12-26T04:14:46.932Z,6.25
2022-12-26T04:20:01.897Z,6.40
2022-12-26T04:25:11.374Z,5.43
2022-12-26T04:30:13.844Z,6.18
2022-12-26T04:35:21.814Z,6.93
2022-12-26T04:40:29.611Z,7.80
2022-12-26T04:45:31.767Z,7.78
2022-12-26T04:50:35.448Z,7.47
2022-12-26T04:55:37.587Z,7.28
2022-12-26T05:00:39.753Z,7.65
2022-12-26T05:05:45.491Z,7.65
2022-12-26T05:10:47.643Z,8.07
2022-12-26T05:15:49.851Z,9.38
2022-12-26T05:20:53.430Z,9.10
2022-12-26T05:25:55.777Z,9.40
2022-12-26T05:30:58.154Z,9.07
2022-12-26T05:36:01.706Z,9.45
2022-12-26T05:41:04.416Z,10.02
2022-12-26T05:46:06.555Z,9.23
2022-12-26T05:51:10.139Z,10.07
2022-12-26T05:56:14.320Z,9.65
2022-12-26T06:01:18.949Z,10.52
2022-12-26T06:06:24.513Z,11.32
2022-12-26T06:11:27.581Z,11.20
2022-12-26T06:16:29.816Z,12.57
2022-12-26T06:21:33.439Z,12.82
2022-12-26T06:26:35.698Z,13.15
2022-12-26T06:31:38.088Z,12.30
2022-12-26T06:36:41.752Z,12.88
2022-12-26T06:41:43.842Z,10.93
2022-12-26T06:46:46.214Z,13.20
2022-12-26T06:51:49.847Z,11.73
2022-12-26T06:56:52.066Z,12.00
2022-12-26T07:01:54.205Z,13.60
2022-12-26T07:06:57.889Z,12.65
2022-12-26T07:12:00.046Z,11.73
2022-12-26T07:17:02.162Z,11.15
2022-12-26T07:22:05.675Z,11.80
2022-12-26T07:27:07.809Z,13.27
2022-12-26T07:32:10.064Z,11.75
2022-12-26T07:37:13.764Z,12.43
2022-12-26T07:42:15.892Z,11.13
2022-12-26T07:47:17.952Z,10.35
2022-12-26T07:52:21.509Z,12.07
2022-12-26T07:57:47.461Z,11.23
2022-12-26T08:02:48.342Z,10.48
2022-12-26T08:07:52.230Z,11.00
2022-12-26T08:12:55.533Z,11.43
2022-12-26T08:17:57.705Z,11.82
2022-12-26T08:23:01.234Z,10.18
2022-12-26T08:28:03.457Z,10.80
2022-12-26T08:33:05.577Z,10.18
2022-12-26T08:38:09.181Z,10.35
2022-12-26T08:43:31.036Z,9.77
2022-12-26T08:48:36.819Z,9.93
2022-12-26T08:53:40.477Z,9.77
2022-12-26T08:58:44.608Z,8.27
2022-12-26T09:03:47.206Z,8.43
2022-12-26T09:08:50.983Z,7.97
2022-12-26T09:13:54.075Z,6.93
2022-12-26T09:18:58.416Z,7.45
2022-12-26T09:24:05.141Z,7.88
2022-12-26T09:29:07.913Z,7.85
2022-12-26T09:34:10.068Z,8.68
2022-12-26T09:39:13.694Z,9.02
2022-12-26T09:44:20.679Z,9.32
2022-12-26T09:49:26.083Z,9.18
2022-12-26T09:54:34.017Z,8.70
2022-12-26T09:59:46.172Z,8.60
2022-12-26T10:04:49.029Z,9.13
2022-12-26T10:10:00.142Z,9.30
2022-12-26T10:15:15.113Z,8.48
2022-12-26T10:20:25.025Z,6.75
2022-12-26T10:25:38.827Z,8.40
2022-12-26T10:30:42.771Z,6.38
2022-12-26T10:35:46.981Z,5.90
2022-12-26T10:40:54.039Z,5.32
2022-12-26T10:46:18.853Z,5.43
2022-12-26T10:51:21.211Z,5.25
2022-12-26T10:56:26.586Z,4.07
2022-12-26T11:01:34.343Z,4.30
2022-12-26T11:06:40.341Z,2.90
2022-12-26T11:11:49.383Z,2.60
2022-12-26T11:16:52.599Z,1.80
2022-12-26T11:21:54.818Z,2.20
2022-12-26T11:27:18.297Z,2.38
2022-12-26T11:32:20.906Z,2.13
2022-12-26T11:37:27.911Z,1.90
2022-12-26T11:42:31.793Z,1.52
2022-12-26T11:47:33.959Z,1.90
2022-12-26T11:52:38.923Z,1.33
2022-12-26T11:57:42.514Z,1.33
2022-12-26T12:02:44.997Z,2.00
2022-12-26T12:07:58.645Z,1.23
2022-12-26T12:13:09.322Z,1.90
2022-12-26T12:18:20.326Z,1.40
2022-12-26T12:23:46.289Z,1.42
2022-12-26T12:29:17.088Z,1.23
2022-12-26T12:34:26.451Z,1.45
2022-12-26T12:39:40.391Z,1.40
2022-12-26T12:44:59.717Z,1.63
2022-12-26T12:50:13.640Z,1.70
2022-12-26T12:55:32.596Z,1.67
2022-12-26T13:00:41.911Z,1.65
2022-12-26T13:05:54.170Z,1.20
2022-12-26T13:11:01.965Z,1.75
2022-12-26T13:16:10.380Z,1.90
2022-12-26T13:21:14.172Z,2.28
2022-12-26T13:26:20.161Z,2.65
2022-12-26T13:31:24.144Z,3.00
2022-12-26T13:36:41.850Z,2.50
2022-12-26T13:41:48.516Z,2.40
2022-12-26T13:46:59.219Z,4.75
2022-12-26T13:52:31.629Z,2.80
2022-12-26T13:57:38.127Z,2.00
2022-12-26T14:03:19.747Z,2.47
2022-12-26T14:08:31.930Z,2.42
2022-12-26T14:13:50.280Z,3.35
2022-12-26T14:19:00.647Z,2.40
2022-12-26T14:24:10.775Z,2.35
2022-12-26T14:29:30.456Z,2.60
2022-12-26T14:34:48.528Z,2.47
2022-12-26T14:40:04.996Z,2.90
2022-12-26T14:45:34.319Z,2.70
2022-12-26T14:50:42.749Z,2.72
2022-12-26T14:55:49.867Z,2.22
2022-12-26T15:00:53.644Z,2.50
2022-12-26T15:06:15.732Z,2.70
2022-12-26T15:11:44.189Z,2.38
2022-12-26T15:17:07.097Z,5.90
2022-12-26T15:22:51.137Z,2.42
2022-12-26T15:28:18.148Z,3.42
2022-12-26T15:33:25.987Z,3.15
2022-12-26T15:38:40.227Z,2.33
2022-12-26T15:44:00.689Z,2.22
2022-12-26T15:49:29.596Z,2.20
2022-12-26T15:55:00.360Z,2.63
2022-12-26T16:00:15.887Z,2.60
2022-12-26T16:05:45.786Z,2.35
2022-12-26T16:11:07.395Z,4.90
2022-12-26T16:16:10.229Z,4.13
2022-12-26T16:21:13.818Z,6.13
2022-12-26T16:26:22.846Z,2.50
2022-12-26T16:31:27.832Z,2.20
2022-12-26T16:36:33.844Z,5.18
2022-12-26T16:41:57.906Z,4.82
2022-12-26T16:47:03.394Z,3.60
2022-12-26T16:52:05.671Z,2.83
2022-12-26T16:57:15.089Z,2.13
2022-12-26T17:02:23.055Z,3.40
2022-12-26T17:07:25.568Z,2.10
2022-12-26T17:12:32.883Z,2.42
2022-12-26T17:17:37.385Z,2.65
2022-12-26T17:22:39.481Z,2.00
2022-12-26T17:27:43.867Z,1.95
2022-12-26T17:32:47.873Z,2.45
2022-12-26T17:37:55.061Z,1.98
2022-12-26T17:48:10.135Z,2.95
2022-12-26T17:53:25.497Z,2.38
2022-12-26T17:58:29.519Z,2.45
2022-12-26T18:03:31.716Z,2.90
2022-12-26T18:08:35.843Z,2.70
2022-12-26T18:13:40.063Z,2.72
2022-12-26T18:18:43.953Z,2.47
2022-12-26T18:23:46.150Z,2.53
2022-12-26T18:28:50.394Z,1.98
2022-12-26T18:33:52.837Z,2.38
2022-12-26T18:38:54.971Z,2.22
2022-12-26T18:43:58.689Z,3.05
2022-12-26T18:49:00.827Z,2.72
2022-12-26T18:54:02.941Z,2.45
2022-12-26T18:59:06.435Z,1.88
2022-12-26T19:04:09.373Z,2.05
2022-12-26T19:09:12.682Z,7.10
2022-12-26T19:14:21.047Z,2.92
2022-12-26T19:19:23.153Z,2.22
2022-12-26T19:24:25.388Z,2.05
2022-12-26T19:29:29.213Z,2.00
2022-12-26T19:34:36.122Z,2.30
2022-12-26T19:39:38.262Z,2.03
2022-12-26T19:44:41.917Z,3.10
2022-12-26T19:49:44.097Z,2.30
2022-12-26T19:54:46.199Z,2.67
2022-12-26T19:59:49.744Z,2.05
2022-12-26T20:04:51.901Z,2.03
2022-12-26T20:09:54.068Z,2.28
2022-12-26T20:14:57.680Z,1.73
2022-12-26T20:19:59.807Z,2.00
2022-12-26T20:25:03.781Z,2.13
2022-12-26T20:30:08.981Z,2.35
2022-12-26T20:35:11.126Z,2.10
2022-12-26T20:40:13.364Z,1.60
2022-12-26T20:45:17.063Z,1.55
2022-12-26T20:50:19.203Z,2.08
2022-12-26T20:55:21.319Z,1.90
2022-12-26T21:00:24.815Z,2.00
2022-12-26T21:05:26.961Z,2.08
2022-12-26T21:10:29.044Z,2.28
2022-12-26T21:15:34.345Z,2.03
2022-12-26T21:20:38.240Z,2.50
2022-12-26T21:25:40.340Z,1.67
2022-12-26T21:30:46.333Z,2.50
2022-12-26T21:35:48.611Z,2.50
2022-12-26T21:40:50.937Z,2.00
2022-12-26T21:46:00.971Z,1.88
2022-12-26T21:51:08.299Z,2.05
2022-12-26T21:56:12.895Z,2.20
2022-12-26T22:01:19.381Z,1.77
2022-12-26T22:06:22.421Z,2.17
2022-12-26T22:11:24.902Z,2.00
2022-12-26T22:16:28.594Z,2.63
2022-12-26T22:21:30.869Z,2.05
2022-12-26T22:26:32.997Z,1.80
2022-12-26T22:31:38.346Z,1.92
2022-12-26T22:36:40.902Z,1.92
2022-12-26T22:41:43.353Z,2.38
2022-12-26T22:46:47.683Z,2.08
2022-12-26T22:51:51.101Z,2.45
2022-12-26T22:56:53.294Z,1.88
2022-12-26T23:01:56.846Z,1.85
2022-12-26T23:06:59.671Z,1.85
2022-12-26T23:12:02.224Z,1.90
2022-12-26T23:17:10.581Z,2.22
2022-12-26T23:22:13.012Z,2.28
2022-12-26T23:27:15.168Z,1.88
2022-12-26T23:32:18.682Z,1.92
2022-12-26T23:37:20.782Z,2.53
2022-12-26T23:42:22.876Z,2.20
2022-12-26T23:47:26.589Z,2.20
2022-12-26T23:52:30.529Z,2.33
2022-12-26T23:57:33.116Z,1.90
